Frankfurt, Germany
Current Conditions -  °F | °C
As of 4:20 PM on Wednesday 22 Oct 2014 (Local Time) from EDDB Reporting Station
Light Rain Light Rain  
Wind Chill: 10°   Ceiling: 500
Heat Index: 10°   Visibility: 1.8mi
Dew Point:   Wind: 7mph
Humidity: 94%   Direction: 280°W
Pressure: 29.68"   Gusts: NA
Location:  52.34°N, 14.55°E
Report Text: EDDB 221420Z 28006KT 3000 -DZRA BR SCT003 BKN005 BKN009 10/09 Q1005 TEMPO BKN004
Loading
Personal Weather Stations






























Interactive Weather Map
Tropical Storm Tracking
New forecast layout! Learn more

10-Day Weather Forecast

Advertisements
Track Severe Weather on mobile